createdAt,value
2024-05-09T00:01:30.935Z,14.58
2024-05-09T00:04:01.565Z,14.57
2024-05-09T00:06:32.145Z,14.64
2024-05-09T00:09:02.733Z,14.68
2024-05-09T00:11:33.624Z,14.61
2024-05-09T00:14:07.025Z,14.56
2024-05-09T00:16:37.635Z,14.54
2024-05-09T00:19:08.249Z,14.56
2024-05-09T00:21:39.227Z,14.57
2024-05-09T00:24:10.177Z,14.58
2024-05-09T00:26:41.192Z,14.58
2024-05-09T00:29:14.518Z,14.61
2024-05-09T00:31:45.271Z,14.63
2024-05-09T00:34:16.196Z,14.65
2024-05-09T00:36:46.899Z,14.67
2024-05-09T00:39:17.539Z,14.66
2024-05-09T00:41:48.038Z,14.63
2024-05-09T00:44:21.478Z,14.60
2024-05-09T00:46:55.091Z,14.57
2024-05-09T00:49:28.259Z,14.54
2024-05-09T00:52:00.920Z,14.50
2024-05-09T00:54:32.094Z,14.39
2024-05-09T00:57:04.227Z,14.44
2024-05-09T00:59:37.837Z,14.36
2024-05-09T01:02:09.890Z,14.41
2024-05-09T01:04:40.660Z,14.38
2024-05-09T01:07:11.922Z,14.37
2024-05-09T01:09:42.787Z,14.34
2024-05-09T01:12:13.616Z,14.37
2024-05-09T01:14:46.939Z,14.43
2024-05-09T01:17:17.946Z,14.46
2024-05-09T01:19:49.944Z,14.45
2024-05-09T01:22:20.554Z,14.48
2024-05-09T01:24:53.766Z,14.39
2024-05-09T01:27:25.572Z,14.39
2024-05-09T01:29:56.176Z,14.42
2024-05-09T01:32:27.391Z,14.39
2024-05-09T01:34:58.716Z,14.38
2024-05-09T01:37:29.445Z,14.31
2024-05-09T01:40:03.535Z,14.37
2024-05-09T01:42:34.570Z,14.27
2024-05-09T01:45:05.576Z,14.37
2024-05-09T01:47:36.866Z,14.34
2024-05-09T01:50:10.727Z,14.29
2024-05-09T01:52:41.759Z,14.25
2024-05-09T01:55:15.007Z,14.15
2024-05-09T01:57:45.671Z,14.06
2024-05-09T02:00:25.879Z,14.01
2024-05-09T02:03:01.977Z,13.97
2024-05-09T02:05:33.033Z,13.93
2024-05-09T02:08:03.789Z,13.86
2024-05-09T02:10:37.137Z,13.74
2024-05-09T02:13:09.702Z,13.69
2024-05-09T02:15:40.229Z,13.58
2024-05-09T02:18:11.987Z,13.44
2024-05-09T02:20:44.122Z,13.38
2024-05-09T02:23:15.350Z,13.22
2024-05-09T02:25:48.832Z,13.25
2024-05-09T02:28:19.542Z,13.20
2024-05-09T02:30:50.153Z,13.21
2024-05-09T02:33:21.665Z,13.20
2024-05-09T02:35:53.311Z,13.03
2024-05-09T02:38:21.342Z,13.07
2024-05-09T02:40:54.639Z,12.99
2024-05-09T02:43:22.654Z,12.94
2024-05-09T02:45:53.084Z,12.94
2024-05-09T02:48:21.277Z,12.89
2024-05-09T02:50:52.332Z,12.84
2024-05-09T02:53:20.250Z,12.79
2024-05-09T02:55:53.737Z,12.72
2024-05-09T02:58:21.633Z,12.67
2024-05-09T03:00:52.195Z,12.67
2024-05-09T03:03:20.904Z,12.65
2024-05-09T03:05:51.628Z,12.67
2024-05-09T03:08:19.699Z,12.71
2024-05-09T03:10:50.366Z,12.71
2024-05-09T03:13:21.099Z,12.67
2024-05-09T03:15:52.748Z,12.58
2024-05-09T03:18:20.784Z,12.56
2024-05-09T03:20:51.346Z,12.51
2024-05-09T03:23:19.581Z,12.48
2024-05-09T03:25:50.408Z,12.32
2024-05-09T03:28:21.114Z,12.55
2024-05-09T03:30:51.784Z,12.55
2024-05-09T03:33:20.782Z,12.47
2024-05-09T03:35:51.795Z,12.48
2024-05-09T03:38:22.739Z,12.51
2024-05-09T03:40:54.090Z,12.57
2024-05-09T03:43:27.426Z,12.51
2024-05-09T03:45:57.243Z,12.71
2024-05-09T03:48:28.540Z,12.74
2024-05-09T03:50:56.477Z,12.79
2024-05-09T03:53:27.166Z,12.85
2024-05-09T03:55:55.127Z,12.91
2024-05-09T03:58:28.310Z,12.96
2024-05-09T04:00:56.253Z,13.05
2024-05-09T04:03:26.963Z,13.10
2024-05-09T04:05:55.315Z,13.25
2024-05-09T04:08:26.265Z,13.32
2024-05-09T04:10:54.343Z,13.36
2024-05-09T04:13:27.629Z,13.40
2024-05-09T04:15:55.487Z,13.46
2024-05-09T04:18:26.078Z,13.52
2024-05-09T04:20:54.148Z,13.53
2024-05-09T04:23:24.719Z,13.55
2024-05-09T04:25:52.661Z,13.63
2024-05-09T04:28:24.184Z,13.56
2024-05-09T04:30:54.780Z,13.77
2024-05-09T04:33:25.790Z,13.88
2024-05-09T04:35:54.395Z,13.91
2024-05-09T04:38:25.204Z,14.05
2024-05-09T04:40:53.262Z,14.15
2024-05-09T04:43:23.865Z,14.28
2024-05-09T04:45:54.478Z,14.35
2024-05-09T04:48:25.780Z,14.35
2024-05-09T04:50:53.851Z,14.38
2024-05-09T04:53:24.557Z,14.49
2024-05-09T04:55:53.419Z,14.61
2024-05-09T04:58:23.975Z,14.66
2024-05-09T05:00:54.684Z,14.68
2024-05-09T05:03:25.475Z,14.70
2024-05-09T05:05:53.554Z,14.77
2024-05-09T05:08:24.160Z,14.86
2024-05-09T05:10:52.185Z,15.01
2024-05-09T05:13:24.159Z,15.07
2024-05-09T05:15:57.694Z,15.24
2024-05-09T05:18:30.016Z,15.35
2024-05-09T05:20:58.521Z,15.44
2024-05-09T05:23:29.319Z,15.62
2024-05-09T05:25:57.367Z,15.61
2024-05-09T05:28:28.452Z,15.86
2024-05-09T05:30:58.946Z,16.00
2024-05-09T05:33:29.599Z,16.07
2024-05-09T05:35:57.593Z,16.18
2024-05-09T05:38:28.917Z,16.22
2024-05-09T05:40:57.014Z,16.35
2024-05-09T05:43:27.701Z,16.51
2024-05-09T05:45:55.478Z,16.53
2024-05-09T05:48:28.699Z,16.59
2024-05-09T05:50:57.153Z,16.73
2024-05-09T05:53:30.096Z,16.86
2024-05-09T05:55:58.386Z,16.90
2024-05-09T05:58:28.893Z,16.92
2024-05-09T06:00:56.804Z,17.00
2024-05-09T06:03:30.724Z,17.05
2024-05-09T06:06:02.964Z,17.01
2024-05-09T06:08:33.703Z,17.13
2024-05-09T06:11:01.851Z,17.18
2024-05-09T06:13:32.498Z,17.23
2024-05-09T06:16:01.049Z,17.10
2024-05-09T06:18:34.357Z,17.20
2024-05-09T06:21:02.436Z,17.27
2024-05-09T06:23:33.044Z,17.43
2024-05-09T06:26:00.910Z,17.42
2024-05-09T06:28:31.529Z,17.58
2024-05-09T06:31:01.688Z,17.78
2024-05-09T06:33:34.968Z,17.79
2024-05-09T06:36:02.992Z,17.84
2024-05-09T06:38:33.789Z,17.96
2024-05-09T06:41:01.907Z,18.09
2024-05-09T06:43:32.404Z,17.95
2024-05-09T06:46:00.281Z,17.97
2024-05-09T06:48:30.869Z,18.09
2024-05-09T06:51:01.554Z,18.29
2024-05-09T06:53:32.933Z,18.43
2024-05-09T06:56:01.380Z,18.53
2024-05-09T06:58:31.908Z,18.57
2024-05-09T07:00:59.862Z,18.59
2024-05-09T07:03:30.679Z,18.48
2024-05-09T07:06:01.458Z,18.50
2024-05-09T07:08:32.181Z,18.63
2024-05-09T07:11:00.975Z,18.84
2024-05-09T07:13:31.538Z,18.96
2024-05-09T07:15:59.412Z,19.12
2024-05-09T07:18:30.237Z,19.20
2024-05-09T07:21:00.928Z,19.30
2024-05-09T07:23:31.934Z,19.35
2024-05-09T07:26:00.015Z,19.47
2024-05-09T07:28:30.607Z,19.40
2024-05-09T07:30:58.744Z,19.21
2024-05-09T07:33:29.261Z,19.37
2024-05-09T07:35:57.643Z,19.30
2024-05-09T07:38:31.007Z,19.34
2024-05-09T07:40:59.141Z,19.32
2024-05-09T07:43:29.852Z,19.44
2024-05-09T07:46:00.926Z,19.53
2024-05-09T07:53:58.309Z,19.68
2024-05-09T07:56:31.855Z,19.67
2024-05-09T07:58:59.949Z,19.69
2024-05-09T08:01:30.600Z,19.72
2024-05-09T08:03:58.756Z,19.94
2024-05-09T08:06:29.679Z,20.08
2024-05-09T08:09:05.182Z,20.17
2024-05-09T08:11:39.875Z,20.09
2024-05-09T08:14:08.554Z,19.99
2024-05-09T08:16:39.103Z,20.17
2024-05-09T08:19:07.108Z,20.36
2024-05-09T08:21:37.677Z,20.45
2024-05-09T08:24:08.338Z,20.59
2024-05-09T08:26:39.291Z,20.65
2024-05-09T08:29:07.189Z,20.51
2024-05-09T08:31:40.371Z,20.51
2024-05-09T08:34:08.519Z,20.62
2024-05-09T08:36:41.231Z,20.53
2024-05-09T08:39:11.835Z,20.57
2024-05-09T08:41:46.227Z,20.62
2024-05-09T08:44:14.510Z,20.69
2024-05-09T08:46:49.357Z,20.95
2024-05-09T08:49:17.333Z,21.06
2024-05-09T08:51:48.162Z,21.17
2024-05-09T08:54:20.215Z,21.03
2024-05-09T08:56:53.367Z,21.05
2024-05-09T08:59:28.118Z,20.96
2024-05-09T09:01:59.091Z,20.99
2024-05-09T09:04:28.915Z,21.03
2024-05-09T09:07:02.310Z,21.18
2024-05-09T09:09:43.747Z,21.28
2024-05-09T09:12:15.647Z,21.24
2024-05-09T09:14:43.416Z,21.51
2024-05-09T09:17:17.427Z,21.74
2024-05-09T09:19:45.534Z,21.71
2024-05-09T09:22:16.143Z,21.52
2024-05-09T09:24:46.801Z,21.60
2024-05-09T09:27:17.441Z,21.86
2024-05-09T09:29:45.331Z,22.03
2024-05-09T09:32:15.972Z,22.07
2024-05-09T09:34:44.950Z,22.10
2024-05-09T09:37:15.583Z,22.09
2024-05-09T09:39:49.130Z,22.43
2024-05-09T09:42:25.488Z,22.68
2024-05-09T09:45:02.204Z,22.73
2024-05-09T09:47:41.141Z,22.92
2024-05-09T09:50:14.419Z,23.07
2024-05-09T09:52:48.918Z,23.16
2024-05-09T09:55:20.319Z,23.23
2024-05-09T09:57:52.329Z,23.22
2024-05-09T10:00:27.435Z,22.96
2024-05-09T10:03:03.351Z,23.09
2024-05-09T10:05:34.149Z,22.95
2024-05-09T10:08:08.503Z,23.01
2024-05-09T10:10:39.344Z,22.90
2024-05-09T10:13:10.833Z,22.90
2024-05-09T10:15:46.200Z,22.80
2024-05-09T10:18:17.911Z,22.84
2024-05-09T10:20:46.860Z,22.84
2024-05-09T10:23:28.983Z,22.72
2024-05-09T10:26:03.238Z,23.01
2024-05-09T10:28:35.564Z,23.19
2024-05-09T10:31:08.132Z,23.39
2024-05-09T10:33:42.991Z,23.52
2024-05-09T10:36:14.297Z,23.38
2024-05-09T10:38:46.278Z,23.28
2024-05-09T10:41:17.315Z,23.45
2024-05-09T10:43:48.352Z,23.46
2024-05-09T10:46:16.812Z,23.56
2024-05-09T10:48:48.713Z,23.49
2024-05-09T10:51:19.398Z,23.25
2024-05-09T10:53:53.947Z,23.19
2024-05-09T10:56:24.436Z,23.26
2024-05-09T10:58:55.198Z,23.04
2024-05-09T11:01:23.189Z,22.91
2024-05-09T11:03:54.007Z,23.08
2024-05-09T11:06:22.040Z,23.46
2024-05-09T11:08:53.672Z,23.65
2024-05-09T11:11:24.430Z,23.82
2024-05-09T11:13:55.019Z,24.13
2024-05-09T11:16:22.966Z,24.23
2024-05-09T11:18:58.545Z,24.40
2024-05-09T11:21:27.215Z,24.26
2024-05-09T11:23:58.252Z,24.21
2024-05-09T11:26:29.771Z,24.19
2024-05-09T11:29:00.397Z,24.37
2024-05-09T11:31:28.378Z,24.57
2024-05-09T11:33:58.880Z,24.63
2024-05-09T11:36:26.750Z,24.88
2024-05-09T11:38:57.289Z,24.70
2024-05-09T11:41:31.243Z,24.64
2024-05-09T11:44:02.183Z,24.71
2024-05-09T11:46:30.138Z,24.74
2024-05-09T11:49:01.104Z,24.88
2024-05-09T11:51:29.450Z,24.99
2024-05-09T11:53:59.985Z,24.88
2024-05-09T11:56:30.613Z,24.55
2024-05-09T11:59:01.250Z,24.62
2024-05-09T12:01:29.258Z,24.81
2024-05-09T12:04:00.272Z,24.75
2024-05-09T12:06:29.638Z,25.04
2024-05-09T12:09:00.192Z,25.23
2024-05-09T12:11:30.994Z,25.41
2024-05-09T12:14:01.503Z,25.48
2024-05-09T12:16:29.510Z,24.95
2024-05-09T12:19:00.236Z,24.86
2024-05-09T12:21:28.500Z,24.62
2024-05-09T12:23:59.048Z,24.54
2024-05-09T12:26:29.720Z,24.81
2024-05-09T12:29:00.249Z,25.02
2024-05-09T12:31:28.471Z,25.05
2024-05-09T12:34:00.683Z,25.02
2024-05-09T12:36:29.016Z,24.80
2024-05-09T12:38:59.664Z,24.56
2024-05-09T12:41:30.640Z,24.67
2024-05-09T12:44:01.181Z,24.80
2024-05-09T12:46:29.492Z,24.82
2024-05-09T12:49:00.495Z,24.81
2024-05-09T12:51:31.238Z,25.05
2024-05-09T12:54:01.946Z,25.39
2024-05-09T12:56:33.773Z,25.11
2024-05-09T12:59:04.495Z,25.04
2024-05-09T13:01:32.461Z,24.83
2024-05-09T13:04:03.118Z,24.71
2024-05-09T13:06:31.946Z,24.79
2024-05-09T13:09:02.527Z,24.68
2024-05-09T13:11:33.078Z,24.58
2024-05-09T13:14:03.847Z,24.45
2024-05-09T13:16:31.852Z,24.25
2024-05-09T13:19:02.697Z,24.13
2024-05-09T13:21:30.827Z,24.23
2024-05-09T13:24:01.285Z,24.37
2024-05-09T13:26:29.209Z,24.71
2024-05-09T13:29:02.318Z,24.78
2024-05-09T13:31:30.255Z,24.73
2024-05-09T13:34:00.826Z,24.57
2024-05-09T13:36:29.546Z,24.33
2024-05-09T13:39:00.054Z,24.41
2024-05-09T13:41:27.945Z,24.56
2024-05-09T13:43:59.172Z,24.61
2024-05-09T13:46:29.855Z,24.97
2024-05-09T13:49:01.233Z,25.17
2024-05-09T13:51:29.222Z,25.05
2024-05-09T13:53:59.742Z,24.84
2024-05-09T13:56:27.638Z,25.04
2024-05-09T13:58:58.063Z,24.75
2024-05-09T14:01:28.768Z,24.78
2024-05-09T14:03:59.671Z,24.94
2024-05-09T14:06:27.671Z,24.88
2024-05-09T14:08:58.224Z,24.82
2024-05-09T14:11:26.174Z,24.61
2024-05-09T14:13:56.698Z,24.57
2024-05-09T14:16:24.677Z,24.47
2024-05-09T14:18:58.018Z,24.38
2024-05-09T14:21:28.695Z,24.64
2024-05-09T14:23:56.709Z,24.92
2024-05-09T14:26:27.547Z,24.98
2024-05-09T14:28:55.480Z,24.71
2024-05-09T14:31:26.038Z,24.84
2024-05-09T14:33:56.788Z,24.83
2024-05-09T14:36:27.337Z,24.62
2024-05-09T14:38:55.225Z,24.64
2024-05-09T14:41:25.738Z,24.74
2024-05-09T14:43:53.566Z,24.48
2024-05-09T14:46:24.235Z,24.55
2024-05-09T14:48:55.576Z,24.56
2024-05-09T14:51:26.368Z,24.51
2024-05-09T14:53:56.911Z,24.43
2024-05-09T14:56:24.820Z,24.47
2024-05-09T14:58:55.469Z,24.67
2024-05-09T15:01:24.393Z,24.59
2024-05-09T15:03:56.977Z,24.63
2024-05-09T15:06:32.562Z,24.69
2024-05-09T15:09:04.369Z,24.62
2024-05-09T15:11:32.358Z,24.47
2024-05-09T15:14:02.983Z,24.47
2024-05-09T15:16:31.495Z,24.33
2024-05-09T15:19:02.520Z,24.26
2024-05-09T15:21:33.196Z,24.28
2024-05-09T15:24:03.795Z,24.28
2024-05-09T15:26:31.897Z,24.23
2024-05-09T15:29:02.835Z,24.10
2024-05-09T15:31:30.723Z,24.12
2024-05-09T15:34:01.377Z,24.18
2024-05-09T15:36:29.488Z,24.19
2024-05-09T15:39:02.760Z,24.13
2024-05-09T15:41:30.826Z,24.05
2024-05-09T15:44:01.256Z,23.96
2024-05-09T15:46:29.226Z,23.78
2024-05-09T15:48:59.994Z,23.81
2024-05-09T15:51:28.774Z,23.67
2024-05-09T15:53:59.350Z,23.56
2024-05-09T15:56:30.141Z,23.65
2024-05-09T15:59:00.993Z,23.59
2024-05-09T16:01:29.079Z,23.46
2024-05-09T16:04:00.074Z,23.46
2024-05-09T16:06:28.387Z,23.44
2024-05-09T16:08:59.218Z,23.37
2024-05-09T16:11:29.926Z,23.36
2024-05-09T16:14:01.766Z,23.36
2024-05-09T16:16:29.948Z,23.23
2024-05-09T16:19:00.670Z,23.28
2024-05-09T16:21:28.548Z,23.21
2024-05-09T16:23:58.955Z,23.10
2024-05-09T16:26:29.714Z,23.05
2024-05-09T16:29:00.398Z,22.93
2024-05-09T16:31:28.359Z,22.67
2024-05-09T16:33:59.057Z,22.68
2024-05-09T16:36:26.973Z,22.61
2024-05-09T16:38:57.451Z,22.50
2024-05-09T16:41:25.519Z,22.44
2024-05-09T16:43:58.779Z,22.39
2024-05-09T16:46:28.391Z,22.35
2024-05-09T16:48:59.145Z,22.33
2024-05-09T16:51:28.115Z,22.26
2024-05-09T16:53:59.191Z,22.23
2024-05-09T16:56:27.935Z,22.12
2024-05-09T16:59:01.278Z,21.99
2024-05-09T17:01:31.010Z,21.89
2024-05-09T17:04:02.584Z,21.87
2024-05-09T17:06:33.147Z,21.74
2024-05-09T17:09:11.379Z,21.65
2024-05-09T17:11:40.926Z,21.65
2024-05-09T17:14:15.744Z,21.51
2024-05-09T17:16:47.791Z,21.36
2024-05-09T17:19:17.703Z,21.24
2024-05-09T17:21:49.851Z,21.09
2024-05-09T17:24:18.892Z,20.95
2024-05-09T17:26:50.341Z,20.86
2024-05-09T17:29:21.895Z,20.76
2024-05-09T17:31:52.408Z,20.61
2024-05-09T17:34:20.486Z,20.50
2024-05-09T17:36:51.157Z,20.45
2024-05-09T17:39:19.673Z,20.33
2024-05-09T17:41:50.225Z,20.23
2024-05-09T17:44:20.780Z,20.12
2024-05-09T17:46:51.405Z,20.04
2024-05-09T17:49:19.729Z,19.92
2024-05-09T17:51:56.875Z,19.82
2024-05-09T17:54:24.987Z,19.70
2024-05-09T17:56:55.527Z,19.65
2024-05-09T17:59:26.314Z,19.62
2024-05-09T18:01:56.885Z,19.59
2024-05-09T18:04:24.920Z,19.48
2024-05-09T18:06:55.924Z,19.43
2024-05-09T18:09:23.771Z,19.37
2024-05-09T18:11:54.176Z,19.29
2024-05-09T18:14:22.312Z,19.23
2024-05-09T18:16:56.123Z,19.16
2024-05-09T18:19:24.227Z,19.15
2024-05-09T18:21:54.797Z,19.11
2024-05-09T18:24:22.766Z,19.09
2024-05-09T18:26:53.978Z,18.95
2024-05-09T18:29:22.335Z,19.03
2024-05-09T18:31:56.128Z,19.00
2024-05-09T18:34:24.073Z,18.97
2024-05-09T18:36:55.147Z,18.89
2024-05-09T18:39:23.151Z,18.86
2024-05-09T18:41:53.882Z,18.79
2024-05-09T18:44:21.875Z,18.77
2024-05-09T18:46:52.374Z,18.71
2024-05-09T18:49:23.207Z,18.68
2024-05-09T18:51:53.816Z,18.59
2024-05-09T18:54:21.573Z,18.51
2024-05-09T18:56:52.042Z,18.48
2024-05-09T18:59:20.151Z,18.44
2024-05-09T19:01:50.778Z,18.39
2024-05-09T19:04:19.472Z,18.22
2024-05-09T19:06:53.123Z,18.26
2024-05-09T19:09:21.014Z,18.25
2024-05-09T19:11:51.521Z,18.19
2024-05-09T19:14:19.653Z,18.14
2024-05-09T19:16:50.451Z,18.11
2024-05-09T19:19:18.555Z,18.05
2024-05-09T19:21:49.218Z,18.01
2024-05-09T19:24:19.903Z,17.96
2024-05-09T19:26:50.539Z,17.86
2024-05-09T19:29:18.308Z,17.84
2024-05-09T19:31:48.728Z,17.80
2024-05-09T19:34:17.160Z,17.73
2024-05-09T19:36:47.736Z,17.68
2024-05-09T19:39:15.690Z,17.64
2024-05-09T19:41:48.853Z,17.61
2024-05-09T19:44:16.717Z,17.58
2024-05-09T19:46:47.840Z,17.59
2024-05-09T19:49:16.987Z,17.54
2024-05-09T19:51:47.720Z,17.52
2024-05-09T19:54:15.734Z,17.48
2024-05-09T19:56:48.958Z,17.47
2024-05-09T19:59:19.514Z,17.42
2024-05-09T20:01:48.486Z,17.33
2024-05-09T20:04:19.582Z,17.33
2024-05-09T20:06:47.794Z,17.30
2024-05-09T20:09:18.256Z,17.25
2024-05-09T20:11:48.984Z,17.21
2024-05-09T20:14:19.567Z,17.18
2024-05-09T20:16:47.595Z,17.14
2024-05-09T20:19:18.250Z,17.13
2024-05-09T20:21:46.548Z,17.12
2024-05-09T20:24:17.232Z,17.12
2024-05-09T20:26:47.786Z,17.09
2024-05-09T20:29:18.187Z,17.07
2024-05-09T20:31:46.173Z,17.05
2024-05-09T20:34:16.655Z,17.04
2024-05-09T20:36:44.570Z,16.97
2024-05-09T20:39:15.035Z,16.84
2024-05-09T20:41:44.025Z,16.90
2024-05-09T20:44:17.102Z,16.86
2024-05-09T20:46:45.804Z,16.81
2024-05-09T20:49:17.217Z,16.75
2024-05-09T20:51:45.486Z,16.72
2024-05-09T20:54:16.137Z,16.69
2024-05-09T20:56:44.020Z,16.59
2024-05-09T20:59:17.689Z,16.51
2024-05-09T21:01:49.291Z,16.49
2024-05-09T21:04:20.439Z,16.45
2024-05-09T21:06:48.408Z,16.41
2024-05-09T21:09:18.843Z,16.32
2024-05-09T21:11:46.871Z,16.29
2024-05-09T21:14:20.138Z,16.23
2024-05-09T21:16:48.402Z,16.19
2024-05-09T21:19:19.093Z,16.08
2024-05-09T21:21:47.994Z,15.94
2024-05-09T21:24:18.945Z,15.85
2024-05-09T21:26:46.773Z,15.68
2024-05-09T21:29:20.070Z,15.58
2024-05-09T21:31:48.024Z,15.54
2024-05-09T21:34:18.616Z,15.44
2024-05-09T21:36:46.619Z,15.34
2024-05-09T21:39:17.065Z,15.29
2024-05-09T21:41:44.976Z,15.21
2024-05-09T21:44:15.454Z,15.14
2024-05-09T21:46:46.038Z,15.09
2024-05-09T21:49:17.521Z,15.07
2024-05-09T21:51:45.464Z,15.07
2024-05-09T21:54:15.876Z,15.08
2024-05-09T21:56:43.757Z,15.09
2024-05-09T21:59:14.155Z,15.10
2024-05-09T22:01:42.109Z,15.12
2024-05-09T22:04:15.312Z,15.15
2024-05-09T22:06:43.218Z,15.20
2024-05-09T22:09:13.702Z,15.21
2024-05-09T22:11:42.158Z,15.25
2024-05-09T22:14:12.625Z,15.25
2024-05-09T22:16:40.912Z,15.27
2024-05-09T22:19:14.747Z,15.23
2024-05-09T22:21:42.633Z,15.20
2024-05-09T22:24:13.418Z,15.16
2024-05-09T22:26:41.250Z,15.14
2024-05-09T22:29:11.652Z,15.13
2024-05-09T22:31:39.555Z,15.03
2024-05-09T22:34:10.092Z,15.02
2024-05-09T22:36:41.268Z,14.96
2024-05-09T22:39:11.849Z,14.93
2024-05-09T22:41:40.535Z,14.89
2024-05-09T22:44:10.904Z,14.84
2024-05-09T22:46:39.518Z,14.72
2024-05-09T22:49:10.175Z,14.67
2024-05-09T22:51:40.850Z,14.69
2024-05-09T22:54:11.466Z,14.63
2024-05-09T22:56:39.880Z,14.57
2024-05-09T22:59:10.302Z,14.54
2024-05-09T23:01:38.239Z,14.54
2024-05-09T23:04:08.961Z,14.51
2024-05-09T23:06:43.738Z,14.49
2024-05-09T23:09:14.498Z,14.48
2024-05-09T23:11:42.486Z,14.46
2024-05-09T23:14:13.350Z,14.41
2024-05-09T23:16:42.644Z,14.37
2024-05-09T23:19:13.202Z,14.26
2024-05-09T23:21:43.829Z,14.20
2024-05-09T23:24:14.692Z,14.25
2024-05-09T23:26:43.383Z,14.20
2024-05-09T23:29:13.936Z,14.07
2024-05-09T23:31:41.872Z,14.11
2024-05-09T23:34:12.497Z,14.17
2024-05-09T23:36:40.488Z,14.07
2024-05-09T23:39:13.703Z,14.07
2024-05-09T23:41:41.867Z,14.08
2024-05-09T23:44:12.315Z,14.14
2024-05-09T23:46:43.343Z,14.11
2024-05-09T23:49:11.501Z,14.08
2024-05-09T23:51:42.047Z,14.09
2024-05-09T23:54:12.796Z,13.93
2024-05-09T23:56:43.331Z,13.71
2024-05-09T23:59:11.174Z,13.76
